Preveza, Greece
Current Conditions -  °F | °C
As of 2:50 AM on Tuesday 27 Jan 2015 (Local Time) from LGPZ Reporting Station
Thunderstorm Thunderstorm  
Wind Chill: 45°   Ceiling: 3000
Heat Index: 48°   Visibility: 5mi
Dew Point: 46°   Wind: 8mph
Humidity: 93%   Direction: 50°NE
Pressure: 29.97"   Gusts: NA
Location:  38.95°N, 20.75°E
Report Text: LGPZ 262350Z 05007KT 8000 -TSRA SCT018CB FEW020TCU BKN030 OVC080 09/08 Q1015
Loading
Personal Weather Stations






























Interactive Weather Map New forecast layout! Learn more

10-Day Weather Forecast

Advertisements
Track Severe Weather on mobile